Time;durP1;ratioP1;P1;durP2;ratioP2;P2;SDS_P1;SDS_P2;PMS_P1;PMS_P2;Temp;Humidity;BMP_temperature;BMP_pressure;BME280_temperature;BME280_humidity;BME280_pressure;Samples;Min_cycle;Max_cycle;Signal;HPM_P1;HPM_P2
2021/09/14 00:01:35;;;;;;;10.07;4.20;;;;;;;10.38;100.00;101798.28;4988589;28;20498;-82
2021/09/14 00:04:01;;;;;;;9.00;4.47;;;;;;;10.33;100.00;101794.22;4993110;28;20033;-81
2021/09/14 00:06:26;;;;;;;9.57;4.70;;;;;;;10.28;100.00;101795.50;5002862;28;20065;-79
2021/09/14 00:08:52;;;;;;;9.43;4.32;;;;;;;10.25;100.00;101791.34;5002890;28;20030;-79
2021/09/14 00:11:17;;;;;;;9.75;4.95;;;;;;;10.24;100.00;101787.03;5006400;28;20084;-79
2021/09/14 00:13:43;;;;;;;8.63;4.30;;;;;;;10.29;100.00;101795.41;5011786;28;20034;-78
2021/09/14 00:16:09;;;;;;;12.23;4.57;;;;;;;10.29;100.00;101802.44;5011970;28;20042;-80
2021/09/14 00:18:34;;;;;;;14.32;5.18;;;;;;;10.26;100.00;101800.88;5010466;28;20034;-79
2021/09/14 00:21:00;;;;;;;8.77;4.50;;;;;;;10.26;100.00;101805.28;5022603;28;20037;-79
2021/09/14 00:23:25;;;;;;;10.98;4.97;;;;;;;10.21;100.00;101800.41;4998673;28;20059;-79
2021/09/14 00:25:51;;;;;;;7.25;4.90;;;;;;;10.23;100.00;101802.91;4992780;28;20030;-80
2021/09/14 00:28:16;;;;;;;13.88;5.32;;;;;;;10.22;100.00;101807.31;5009330;28;20041;-80
2021/09/14 00:30:42;;;;;;;9.57;5.20;;;;;;;10.20;100.00;101792.66;4997073;28;20041;-81
2021/09/14 00:33:16;;;;;;;11.55;4.97;;;;;;;10.25;100.00;101806.25;5008253;28;20029;-80
2021/09/14 00:35:42;;;;;;;12.45;5.88;;;;;;;10.23;100.00;101795.88;5019917;28;20046;-81
2021/09/14 00:38:07;;;;;;;14.52;5.47;;;;;;;10.23;100.00;101809.00;4995156;28;20530;-80
2021/09/14 00:40:33;;;;;;;12.98;5.57;;;;;;;10.26;100.00;101802.66;5006120;28;20033;-79
2021/09/14 00:43:00;;;;;;;9.55;5.63;;;;;;;10.26;100.00;101798.25;5002497;28;20131;-80
2021/09/14 00:45:25;;;;;;;16.42;5.55;;;;;;;10.22;100.00;101788.13;5013575;28;20516;-80
2021/09/14 00:47:51;;;;;;;14.95;5.70;;;;;;;10.25;100.00;101796.59;4986203;28;20500;-78
2021/09/14 00:50:16;;;;;;;10.82;5.53;;;;;;;10.32;100.00;101802.22;5026632;28;20041;-79
2021/09/14 00:52:42;;;;;;;11.15;6.35;;;;;;;10.40;100.00;101794.59;5021084;28;20021;-80
2021/09/14 00:55:08;;;;;;;12.95;5.63;;;;;;;10.44;100.00;101792.56;4996177;28;20077;-80
2021/09/14 00:57:33;;;;;;;7.85;5.03;;;;;;;10.55;100.00;101802.22;4967944;28;20040;-79
2021/09/14 00:59:59;;;;;;;8.80;5.18;;;;;;;10.60;100.00;101787.78;5010531;28;20045;-79
2021/09/14 01:02:25;;;;;;;10.32;5.50;;;;;;;10.64;100.00;101796.25;5014937;28;20029;-82
2021/09/14 01:04:51;;;;;;;13.18;6.38;;;;;;;10.60;100.00;101779.91;4978684;28;20129;-80
2021/09/14 01:07:17;;;;;;;12.48;5.55;;;;;;;10.68;100.00;101787.16;4988313;28;20039;-81
2021/09/14 01:09:43;;;;;;;13.43;5.60;;;;;;;10.63;100.00;101781.47;4981261;28;20048;-79
2021/09/14 01:12:10;;;;;;;9.82;5.35;;;;;;;10.68;100.00;101789.78;5018262;28;20045;-80
2021/09/14 01:14:35;;;;;;;10.98;5.72;;;;;;;10.66;100.00;101789.94;5012601;28;20052;-78
2021/09/14 01:17:01;;;;;;;8.57;5.25;;;;;;;10.58;100.00;101775.75;4996304;28;20124;-82
2021/09/14 01:19:27;;;;;;;9.02;5.00;;;;;;;10.63;100.00;101789.34;4995246;28;20038;-80
2021/09/14 01:21:53;;;;;;;10.57;4.93;;;;;;;10.59;100.00;101788.75;4983012;28;20025;-79
2021/09/14 01:24:18;;;;;;;6.50;4.95;;;;;;;10.56;100.00;101778.47;5007650;28;20064;-81
2021/09/14 01:26:53;;;;;;;7.13;4.93;;;;;;;10.59;100.00;101783.50;5003824;28;20033;-79
2021/09/14 01:32:09;;;;;;;9.30;4.72;;;;;;;10.58;100.00;101789.69;5014608;28;20511;-78
2021/09/14 01:34:34;;;;;;;7.47;4.55;;;;;;;10.60;100.00;101787.78;5014236;28;20048;-82
2021/09/14 01:37:01;;;;;;;10.65;5.07;;;;;;;10.60;100.00;101784.31;4987279;28;20034;-81
2021/09/14 01:39:28;;;;;;;10.02;4.93;;;;;;;10.59;100.00;101786.13;5016743;28;20045;-83
2021/09/14 01:41:57;;;;;;;10.13;5.03;;;;;;;10.60;100.00;101782.53;4989822;28;20511;-81
2021/09/14 01:44:22;;;;;;;7.15;4.68;;;;;;;10.61;100.00;101780.75;5028392;28;20046;-80
2021/09/14 01:46:48;;;;;;;9.10;4.68;;;;;;;10.60;100.00;101789.56;5023513;28;20518;-79
2021/09/14 01:49:14;;;;;;;8.43;4.97;;;;;;;10.58;100.00;101781.00;4999372;28;20052;-79
2021/09/14 01:51:40;;;;;;;9.13;4.95;;;;;;;10.59;100.00;101788.75;4965464;28;20564;-79
2021/09/14 01:54:06;;;;;;;9.32;5.20;;;;;;;10.59;100.00;101775.63;4995204;28;20535;-81
2021/09/14 01:56:32;;;;;;;7.93;4.43;;;;;;;10.67;100.00;101785.50;4992135;28;20026;-81
2021/09/14 01:58:57;;;;;;;10.30;5.20;;;;;;;10.62;100.00;101771.91;4992104;28;20052;-79
2021/09/14 02:01:39;;;;;;;9.57;5.18;;;;;;;10.68;100.00;101781.91;4991122;28;20476;-79
2021/09/14 02:04:12;;;;;;;9.50;4.68;;;;;;;10.65;100.00;101775.13;4975919;28;20049;-79
2021/09/14 02:38:17;;;;;;;11.85;5.80;;;;;;;10.71;100.00;101771.19;5012230;28;20029;-80
2021/09/14 03:01:02;;;;;;;15.07;7.10;;;;;;;10.74;100.00;101760.47;5002860;28;20100;-80
2021/09/14 03:03:28;;;;;;;13.55;7.07;;;;;;;10.77;100.00;101757.56;5019414;28;20072;-79
2021/09/14 03:05:54;;;;;;;14.38;7.05;;;;;;;10.77;100.00;101752.31;5014803;28;20044;-79
2021/09/14 03:08:22;;;;;;;13.27;7.30;;;;;;;10.81;100.00;101756.38;4990727;28;20060;-79
2021/09/14 03:10:48;;;;;;;13.80;6.95;;;;;;;10.84;100.00;101750.06;5024548;28;20467;-80
2021/09/14 03:13:13;;;;;;;14.85;7.47;;;;;;;10.86;100.00;101756.00;4995842;28;20121;-80
2021/09/14 03:15:39;;;;;;;13.60;6.82;;;;;;;10.94;100.00;101760.63;4985486;28;20040;-79
2021/09/14 03:18:04;;;;;;;16.98;7.10;;;;;;;10.93;100.00;101748.50;4990786;28;20124;-81
2021/09/14 03:20:30;;;;;;;10.75;6.38;;;;;;;11.00;100.00;101755.75;5021438;28;20034;-79
2021/09/14 03:22:55;;;;;;;15.35;7.20;;;;;;;10.97;100.00;101753.34;4996635;28;20145;-79
2021/09/14 03:25:21;;;;;;;21.15;7.30;;;;;;;11.04;100.00;101764.19;4998720;28;20100;-80
2021/09/14 03:27:47;;;;;;;15.45;7.45;;;;;;;11.03;100.00;101765.97;5004968;28;20063;-79
2021/09/14 03:30:13;;;;;;;14.52;7.55;;;;;;;11.05;100.00;101756.19;4998735;28;20045;-80
2021/09/14 03:32:39;;;;;;;15.98;7.47;;;;;;;11.03;100.00;101752.84;5024697;28;20041;-81
2021/09/14 03:35:05;;;;;;;13.65;7.07;;;;;;;11.11;100.00;101760.09;5006526;28;20037;-79
2021/09/14 03:37:31;;;;;;;16.40;7.63;;;;;;;11.13;100.00;101754.72;4987495;28;20033;-81
2021/09/14 03:40:00;;;;;;;10.98;6.53;;;;;;;11.15;100.00;101764.16;5005248;28;20026;-80
2021/09/14 03:42:26;;;;;;;15.27;7.78;;;;;;;11.18;100.00;101753.38;5001897;28;20033;-81
2021/09/14 03:44:52;;;;;;;19.73;7.57;;;;;;;11.13;100.00;101745.03;5018675;28;20036;-80
2021/09/14 03:47:17;;;;;;;13.23;7.80;;;;;;;11.16;100.00;101741.34;5017302;28;20506;-79
2021/09/14 03:49:45;;;;;;;14.70;8.38;;;;;;;11.22;100.00;101748.72;5018597;28;20037;-79
2021/09/14 03:52:10;;;;;;;15.18;8.63;;;;;;;11.24;100.00;101750.25;5008111;28;20052;-77
2021/09/14 03:54:36;;;;;;;20.38;8.40;;;;;;;11.21;100.00;101742.63;5000253;28;20053;-78
2021/09/14 03:57:01;;;;;;;16.58;8.13;;;;;;;11.28;100.00;101751.69;4999866;28;20049;-77
2021/09/14 03:59:27;;;;;;;16.20;8.23;;;;;;;11.32;100.00;101754.91;5021117;28;20133;-79
2021/09/14 04:01:56;;;;;;;18.40;8.73;;;;;;;11.34;100.00;101752.13;4992539;28;20209;-80
2021/09/14 04:04:45;;;;;;;15.50;8.20;;;;;;;11.38;100.00;101750.94;5000358;28;20057;-80
2021/09/14 04:07:23;;;;;;;15.52;8.25;;;;;;;11.45;100.00;101758.19;5017678;28;20503;-81
2021/09/14 04:09:50;;;;;;;13.90;8.00;;;;;;;11.46;100.00;101765.06;5019255;28;20030;-78
2021/09/14 04:12:16;;;;;;;12.25;8.68;;;;;;;11.47;100.00;101763.28;4996286;28;20042;-80
2021/09/14 04:14:42;;;;;;;13.65;7.90;;;;;;;11.47;100.00;101765.91;5012888;28;20068;-80
2021/09/14 04:17:07;;;;;;;12.15;8.50;;;;;;;11.46;100.00;101767.72;5025579;28;20030;-79
2021/09/14 04:19:33;;;;;;;12.77;8.40;;;;;;;11.48;100.00;101759.69;5014289;28;20443;-82
2021/09/14 04:22:03;;;;;;;17.63;7.85;;;;;;;11.46;100.00;101761.63;5009095;28;20064;-80
2021/09/14 04:24:32;;;;;;;17.83;8.63;;;;;;;11.47;100.00;101758.88;5000723;28;20065;-81
2021/09/14 04:26:59;;;;;;;13.15;8.30;;;;;;;11.48;100.00;101757.91;5013704;28;20041;-79
2021/09/14 04:29:25;;;;;;;20.90;9.20;;;;;;;11.52;100.00;101763.72;4997114;28;20049;-79
2021/09/14 04:31:51;;;;;;;16.50;8.82;;;;;;;11.49;100.00;101749.06;5010162;28;20044;-81
2021/09/14 04:34:16;;;;;;;14.07;7.93;;;;;;;11.50;100.00;101755.97;4970821;28;20045;-80
2021/09/14 04:36:44;;;;;;;14.18;8.57;;;;;;;11.52;100.00;101758.47;4998552;28;20071;-79
2021/09/14 04:39:12;;;;;;;11.73;7.85;;;;;;;11.56;100.00;101754.63;4999037;28;20124;-82
2021/09/14 04:41:39;;;;;;;15.77;8.32;;;;;;;11.55;100.00;101760.88;5012511;28;20037;-80
2021/09/14 04:44:05;;;;;;;17.23;8.30;;;;;;;11.58;100.00;101757.13;5012807;28;20042;-78
2021/09/14 04:46:31;;;;;;;16.17;9.18;;;;;;;11.49;100.00;101745.63;4979766;28;20111;-77
2021/09/14 04:48:57;;;;;;;14.90;8.05;;;;;;;11.56;100.00;101745.94;4982909;28;20081;-78
2021/09/14 04:51:22;;;;;;;13.93;8.10;;;;;;;11.55;100.00;101737.22;5015381;28;20102;-80
2021/09/14 04:53:48;;;;;;;17.52;8.40;;;;;;;11.60;100.00;101744.69;5011980;28;20061;-79
2021/09/14 04:56:15;;;;;;;15.65;8.32;;;;;;;11.59;100.00;101729.91;4991314;28;20034;-79
2021/09/14 04:58:41;;;;;;;12.95;7.68;;;;;;;11.61;100.00;101736.69;4972097;28;20049;-78
2021/09/14 05:01:09;;;;;;;17.42;9.38;;;;;;;11.60;100.00;101735.03;4995463;28;20045;-82
2021/09/14 05:03:35;;;;;;;20.15;8.50;;;;;;;11.68;100.00;101743.09;5001860;28;20049;-77
2021/09/14 05:06:02;;;;;;;17.58;8.95;;;;;;;11.72;100.00;101748.13;5011214;28;20037;-80
2021/09/14 05:08:29;;;;;;;15.30;8.90;;;;;;;11.73;100.00;101742.69;5004501;28;20544;-80
2021/09/14 05:10:55;;;;;;;16.55;9.05;;;;;;;11.69;100.00;101738.69;4998265;28;20030;-80
2021/09/14 05:13:21;;;;;;;13.48;8.85;;;;;;;11.78;100.00;101748.41;5008432;28;20040;-79
2021/09/14 05:15:47;;;;;;;14.07;8.38;;;;;;;11.74;100.00;101738.31;4998944;28;20041;-81
2021/09/14 05:18:31;;;;;;;12.88;8.32;;;;;;;11.82;100.00;101738.47;5016922;28;20484;-80
2021/09/14 05:21:01;;;;;;;18.40;9.00;;;;;;;11.82;100.00;101741.09;5013599;28;20049;-79
2021/09/14 05:23:33;;;;;;;12.02;8.77;;;;;;;11.88;100.00;101737.94;4981171;28;20073;-79
2021/09/14 05:26:06;;;;;;;19.70;8.52;;;;;;;11.91;100.00;101740.34;4988088;28;20040;-78
2021/09/14 05:28:35;;;;;;;19.80;8.77;;;;;;;11.94;100.00;101734.00;4998255;28;20030;-80
2021/09/14 05:31:05;;;;;;;14.30;9.15;;;;;;;11.94;100.00;101726.97;5010813;28;20407;-80
2021/09/14 05:33:31;;;;;;;17.13;9.30;;;;;;;12.03;100.00;101723.50;4998770;23;20057;-78
2021/09/14 05:35:57;;;;;;;18.30;8.73;;;;;;;12.08;100.00;101726.59;4940179;28;20040;-78
2021/09/14 05:38:24;;;;;;;13.98;8.18;;;;;;;12.11;100.00;101722.88;4955180;28;20103;-79
2021/09/14 05:40:56;;;;;;;15.68;8.30;;;;;;;12.14;100.00;101721.78;4963894;28;20046;-79
2021/09/14 05:43:27;;;;;;;15.13;7.25;;;;;;;12.15;100.00;101720.78;4973467;28;20034;-78
2021/09/14 05:45:54;;;;;;;14.43;7.20;;;;;;;12.18;100.00;101726.63;4941775;28;20034;-81
2021/09/14 05:48:23;;;;;;;15.85;7.20;;;;;;;12.20;100.00;101724.69;4953237;28;20042;-81
2021/09/14 05:50:49;;;;;;;10.07;6.70;;;;;;;12.27;100.00;101725.81;4941368;28;20034;-80
2021/09/14 05:53:14;;;;;;;12.27;6.20;;;;;;;12.26;100.00;101720.69;4966643;28;20026;-79
2021/09/14 05:55:41;;;;;;;10.75;5.43;;;;;;;12.38;100.00;101732.78;4939010;28;20115;-79
2021/09/14 05:58:08;;;;;;;10.32;5.57;;;;;;;12.45;100.00;101733.06;4942686;28;20057;-81
2021/09/14 06:00:35;;;;;;;12.30;5.20;;;;;;;12.49;100.00;101733.63;4947633;28;20027;-80
2021/09/14 06:03:02;;;;;;;9.35;5.05;;;;;;;12.49;100.00;101726.59;4939269;28;20085;-78
2021/09/14 06:05:31;;;;;;;13.30;4.68;;;;;;;12.56;100.00;101734.75;4952014;28;20561;-80
2021/09/14 06:07:56;;;;;;;10.45;4.43;;;;;;;12.63;100.00;101741.16;4939063;28;20137;-78
2021/09/14 06:10:22;;;;;;;6.97;4.15;;;;;;;12.64;100.00;101741.03;4953680;28;20036;-79
2021/09/14 06:13:01;;;;;;;9.23;4.35;;;;;;;12.68;100.00;101738.09;4954780;28;20023;-78
2021/09/14 06:15:27;;;;;;;6.70;3.65;;;;;;;12.73;100.00;101744.63;4954877;28;20133;-80
2021/09/14 06:17:52;;;;;;;8.75;4.07;;;;;;;12.76;100.00;101736.47;4972442;28;20080;-79
2021/09/14 06:20:18;;;;;;;8.77;4.13;;;;;;;12.81;100.00;101738.69;4952081;28;20097;-79
2021/09/14 06:22:44;;;;;;;7.97;3.92;;;;;;;12.85;100.00;101742.72;4957397;28;20089;-79
2021/09/14 06:25:10;;;;;;;9.98;3.80;;;;;;;12.92;100.00;101743.84;4945662;28;20031;-81
2021/09/14 06:27:35;;;;;;;8.55;3.75;;;;;;;12.97;100.00;101724.97;4939734;28;20041;-82
2021/09/14 06:30:01;;;;;;;6.90;3.80;;;;;;;13.09;100.00;101739.69;4951032;28;20397;-80
2021/09/14 06:32:26;;;;;;;12.00;4.53;;;;;;;13.11;100.00;101731.63;4935171;28;20054;-79
2021/09/14 06:34:56;;;;;;;7.53;4.20;;;;;;;13.19;100.00;101739.69;4934254;28;20424;-81
2021/09/14 06:37:21;;;;;;;9.98;4.00;;;;;;;13.22;100.00;101745.50;4942422;28;20035;-81
2021/09/14 06:39:47;;;;;;;12.93;4.15;;;;;;;13.28;100.00;101741.50;4944740;28;20157;-81
2021/09/14 06:42:13;;;;;;;8.82;3.88;;;;;;;13.36;100.00;101751.34;4944835;28;20062;-81
2021/09/14 06:44:41;;;;;;;14.70;3.90;;;;;;;13.35;100.00;101742.59;4961278;28;20036;-81
2021/09/14 06:47:11;;;;;;;8.35;3.67;;;;;;;13.50;100.00;101747.44;4960592;28;20095;-79
2021/09/14 06:49:37;;;;;;;12.57;4.13;;;;;;;13.51;100.00;101741.22;4942446;28;20039;-80
2021/09/14 06:52:03;;;;;;;7.63;3.70;;;;;;;13.53;100.00;101740.09;4965068;28;20038;-78
2021/09/14 06:54:28;;;;;;;13.13;4.00;;;;;;;13.65;100.00;101745.19;4943176;28;20121;-80
2021/09/14 06:56:53;;;;;;;7.82;4.07;;;;;;;13.65;100.00;101732.03;4950775;28;20053;-79
2021/09/14 06:59:19;;;;;;;12.82;4.32;;;;;;;13.74;100.00;101744.34;4961883;28;20157;-79
2021/09/14 07:01:45;;;;;;;12.45;3.90;;;;;;;13.78;100.00;101745.72;4961262;28;20108;-81
2021/09/14 07:04:11;;;;;;;11.00;4.68;;;;;;;13.81;100.00;101740.19;4969098;28;20030;-80
2021/09/14 07:06:37;;;;;;;10.82;4.28;;;;;;;13.89;100.00;101739.44;4951815;28;20031;-80
2021/09/14 07:09:03;;;;;;;8.73;4.72;;;;;;;13.96;100.00;101749.28;4959720;28;20038;-82
2021/09/14 07:11:28;;;;;;;12.02;4.05;;;;;;;14.05;100.00;101757.28;4944945;28;20045;-79
2021/09/14 07:13:55;;;;;;;8.32;4.00;;;;;;;14.15;100.00;101740.47;4961253;28;20482;-80
2021/09/14 07:16:21;;;;;;;13.35;4.25;;;;;;;14.24;100.00;101741.41;4951077;28;20508;-77
2021/09/14 07:18:47;;;;;;;9.40;3.83;;;;;;;14.33;100.00;101747.59;4961201;28;20042;-80
2021/09/14 07:21:12;;;;;;;11.95;4.38;;;;;;;14.41;100.00;101740.63;4937573;28;20512;-78
2021/09/14 07:23:38;;;;;;;12.40;4.25;;;;;;;14.43;100.00;101735.19;4945695;28;20038;-79
2021/09/14 07:26:03;;;;;;;11.18;4.15;;;;;;;14.61;100.00;101735.25;4942671;28;20101;-80
2021/09/14 07:28:29;;;;;;;11.63;3.85;;;;;;;14.79;100.00;101735.28;4955304;28;20039;-79
2021/09/14 07:30:54;;;;;;;10.00;3.88;;;;;;;15.02;100.00;101742.75;4950849;28;20493;-81
2021/09/14 07:33:20;;;;;;;10.95;4.18;;;;;;;15.19;100.00;101729.50;4960675;28;20038;-81
2021/09/14 07:35:46;;;;;;;7.97;3.22;;;;;;;15.37;100.00;101736.59;4941320;28;20559;-80
2021/09/14 07:38:12;;;;;;;9.88;3.28;;;;;;;15.46;100.00;101726.91;4957833;28;20125;-81
2021/09/14 07:40:38;;;;;;;6.60;3.33;;;;;;;15.58;99.22;101726.50;4944298;28;20403;-78
2021/09/14 07:43:04;;;;;;;8.85;3.40;;;;;;;15.68;99.85;101713.16;4961459;28;20037;-81
2021/09/14 07:45:30;;;;;;;8.75;3.17;;;;;;;15.82;99.32;101725.00;4957195;28;20113;-80
2021/09/14 07:47:55;;;;;;;5.70;3.30;;;;;;;16.03;98.10;101735.22;4938946;28;20125;-77
2021/09/14 07:50:22;;;;;;;9.10;3.80;;;;;;;16.05;96.66;101725.31;4951117;28;20089;-80
2021/09/14 07:52:51;;;;;;;6.43;3.28;;;;;;;16.07;95.83;101731.25;4971340;28;20042;-78
2021/09/14 07:55:17;;;;;;;6.72;3.47;;;;;;;16.07;96.06;101727.78;4950545;28;20144;-81
2021/09/14 07:57:43;;;;;;;7.13;4.20;;;;;;;16.09;96.93;101734.59;4955783;28;20101;-80
2021/09/14 08:00:09;;;;;;;8.30;4.05;;;;;;;16.19;96.09;101731.81;4954879;28;20105;-84
2021/09/14 08:02:40;;;;;;;8.55;3.70;;;;;;;16.32;96.50;101728.72;4945120;28;20045;-79
2021/09/14 08:05:06;;;;;;;10.32;3.97;;;;;;;16.41;95.60;101729.59;4957606;28;20472;-79
2021/09/14 08:07:32;;;;;;;8.10;4.00;;;;;;;16.48;96.31;101726.13;4959833;28;20100;-81
2021/09/14 08:09:58;;;;;;;6.18;3.70;;;;;;;16.62;95.33;101721.19;4959347;28;20394;-80
2021/09/14 08:12:23;;;;;;;8.57;4.03;;;;;;;16.72;95.38;101725.31;4940476;28;20026;-79
2021/09/14 08:14:49;;;;;;;8.88;4.78;;;;;;;16.77;93.51;101730.16;4937565;28;20069;-83
2021/09/14 08:17:16;;;;;;;12.93;4.57;;;;;;;16.79;93.80;101738.75;4940839;28;20058;-80
2021/09/14 08:19:43;;;;;;;10.48;4.20;;;;;;;16.79;94.04;101741.41;4958291;28;20035;-82
2021/09/14 08:22:12;;;;;;;11.70;4.72;;;;;;;16.91;93.87;101737.50;4942951;28;20093;-79
2021/09/14 08:24:37;;;;;;;8.35;4.50;;;;;;;16.93;93.52;101740.81;4943198;28;20077;-80
2021/09/14 08:27:03;;;;;;;6.97;4.40;;;;;;;17.00;93.72;101742.81;4954762;28;20070;-80
2021/09/14 08:29:30;;;;;;;5.85;4.00;;;;;;;17.08;95.53;101737.50;4957375;28;20035;-80
2021/09/14 08:31:57;;;;;;;7.47;3.97;;;;;;;17.23;94.80;101742.97;4939988;28;20039;-81
2021/09/14 08:34:22;;;;;;;11.68;4.18;;;;;;;17.21;92.45;101734.34;4962435;28;20042;-80
2021/09/14 08:36:48;;;;;;;9.10;3.50;;;;;;;17.25;92.08;101735.66;4981295;28;20053;-80
2021/09/14 08:39:14;;;;;;;7.72;3.97;;;;;;;17.33;93.20;101730.38;4957767;28;20038;-79
2021/09/14 08:41:43;;;;;;;8.40;3.80;;;;;;;17.21;91.40;101731.69;4942101;28;20093;-80
2021/09/14 08:44:08;;;;;;;8.23;3.70;;;;;;;17.26;91.68;101729.38;4944403;28;20030;-81
2021/09/14 08:46:35;;;;;;;8.32;3.42;;;;;;;17.45;92.06;101738.81;4962265;28;20104;-80
2021/09/14 08:49:01;;;;;;;6.90;3.40;;;;;;;17.67;91.88;101746.06;4935231;28;20183;-77
2021/09/14 08:51:27;;;;;;;7.30;2.90;;;;;;;17.71;89.34;101739.44;4957438;28;20034;-78
2021/09/14 08:53:53;;;;;;;6.65;3.47;;;;;;;17.66;87.81;101740.94;4935427;28;20086;-78
2021/09/14 08:56:18;;;;;;;7.43;3.22;;;;;;;17.75;89.12;101741.75;4959408;28;20073;-78
2021/09/14 08:58:54;;;;;;;7.68;3.08;;;;;;;17.76;88.05;101738.91;4939811;28;20035;-79
2021/09/14 09:01:21;;;;;;;9.02;3.08;;;;;;;17.82;87.70;101748.00;4970631;28;20493;-80
2021/09/14 09:04:02;;;;;;;6.55;2.40;;;;;;;17.81;86.77;101747.19;4955809;28;20038;-78
2021/09/14 09:06:36;;;;;;;5.78;2.40;;;;;;;17.83;85.37;101747.84;4968136;28;20572;-78
2021/09/14 09:09:15;;;;;;;7.82;2.97;;;;;;;17.84;84.58;101743.41;4939928;28;20030;-78
2021/09/14 09:12:02;;;;;;;6.00;2.80;;;;;;;17.84;85.26;101743.41;4932272;28;20038;-79
2021/09/14 09:14:44;;;;;;;5.57;2.90;;;;;;;17.93;83.91;101741.56;4958842;28;20049;-81
2021/09/14 09:17:14;;;;;;;;;;;;;;;17.99;84.64;101731.09;4993043;28;20096;-79
2021/09/14 09:19:58;;;;;;;8.40;3.08;;;;;;;18.01;84.67;101722.97;4947573;28;20332;-79
2021/09/14 09:22:25;;;;;;;5.70;2.70;;;;;;;18.13;86.14;101728.72;4946479;28;20138;-82
2021/09/14 09:24:53;;;;;;;5.97;3.10;;;;;;;18.16;84.80;101733.66;4947539;28;20038;-80
2021/09/14 09:27:21;;;;;;;5.82;3.00;;;;;;;18.22;82.36;101727.69;4956901;28;20046;-83
2021/09/14 09:29:58;;;;;;;9.05;3.55;;;;;;;18.40;85.10;101724.75;4931631;28;20063;-83
2021/09/14 09:32:24;;;;;;;9.45;2.90;;;;;;;18.43;84.68;101724.44;4974990;28;20041;-83
2021/09/14 09:34:58;;;;;;;6.30;3.20;;;;;;;18.55;84.33;101735.47;4978508;28;20125;-82
2021/09/14 09:37:23;;;;;;;10.50;3.15;;;;;;;18.57;81.53;101747.59;4962835;28;20069;-83
2021/09/14 09:39:49;;;;;;;8.52;3.38;;;;;;;18.55;81.42;101746.09;4946624;28;20038;-83
2021/09/14 09:42:16;;;;;;;6.40;3.20;;;;;;;18.63;81.70;101744.25;4962197;28;20464;-81
2021/09/14 09:44:56;;;;;;;8.38;3.22;;;;;;;18.60;81.75;101746.41;4946061;28;20037;-81
2021/09/14 09:47:22;;;;;;;8.10;3.13;;;;;;;18.69;81.01;101740.06;4959824;28;20045;-80
2021/09/14 09:49:47;;;;;;;5.30;3.30;;;;;;;18.63;83.81;101732.78;4991779;28;20038;-83
2021/09/14 09:52:14;;;;;;;8.52;3.60;;;;;;;18.72;81.23;101734.38;4950011;28;20074;-82
2021/09/14 09:54:40;;;;;;;5.47;3.20;;;;;;;18.84;82.39;101727.69;4931938;28;20043;-82
2021/09/14 09:57:09;;;;;;;8.85;2.80;;;;;;;19.02;80.64;101724.75;4968643;28;20705;-81
2021/09/14 09:59:35;;;;;;;6.70;2.92;;;;;;;18.90;81.91;101726.16;4959854;28;20038;-84
2021/09/14 10:02:22;;;;;;;6.65;2.80;;;;;;;18.92;81.88;101728.63;4943762;28;20038;-81
2021/09/14 10:05:00;;;;;;;7.35;3.20;;;;;;;19.08;80.75;101730.31;4943157;28;20060;-83
2021/09/14 10:07:28;;;;;;;8.48;3.25;;;;;;;19.19;80.27;101716.59;4950141;28;20043;-79
2021/09/14 10:09:56;;;;;;;7.10;3.50;;;;;;;19.35;78.09;101716.47;4939976;28;20089;-82
2021/09/14 10:12:27;;;;;;;7.03;3.40;;;;;;;19.49;77.28;101712.16;4936854;28;20672;-82
2021/09/14 10:15:01;;;;;;;7.43;3.08;;;;;;;19.63;78.11;101715.84;4952395;28;20041;-79
2021/09/14 10:17:28;;;;;;;5.97;2.45;;;;;;;19.79;76.49;101706.88;4942632;28;20057;-82
2021/09/14 10:19:53;;;;;;;4.63;2.97;;;;;;;19.96;77.65;101707.53;4959896;28;20088;-82
2021/09/14 10:22:25;;;;;;;6.60;3.00;;;;;;;20.05;75.46;101708.25;4960547;28;20042;-80
2021/09/14 10:24:52;;;;;;;6.80;2.97;;;;;;;19.99;76.13;101705.31;4953527;28;20026;-79
2021/09/14 10:27:19;;;;;;;3.83;2.67;;;;;;;19.74;75.27;101703.94;4943195;28;20865;-78
2021/09/14 10:29:56;;;;;;;7.88;3.20;;;;;;;19.76;73.85;101700.09;4975904;28;20037;-77
2021/09/14 10:32:21;;;;;;;4.32;2.50;;;;;;;19.95;73.81;101697.91;4975666;28;20042;-79
2021/09/14 10:34:55;;;;;;;8.50;2.40;;;;;;;20.19;74.52;101702.91;4940728;28;20378;-78
2021/09/14 10:37:21;;;;;;;4.90;2.30;;;;;;;20.32;73.75;101702.22;4928534;28;20524;-81
2021/09/14 10:39:46;;;;;;;5.70;2.10;;;;;;;20.43;72.18;101695.56;4975049;28;20501;-79
2021/09/14 10:42:19;;;;;;;7.50;2.58;;;;;;;20.37;69.49;101691.81;4981712;28;20053;-81
2021/09/14 10:44:45;;;;;;;;;;;;;;;20.45;70.32;101692.72;4982394;28;20047;-77
2021/09/14 10:47:17;;;;;;;6.50;2.85;;;;;;;20.47;69.05;101696.84;4995129;28;19918;-77
2021/09/14 10:49:58;;;;;;;7.20;2.15;;;;;;;20.43;69.99;101701.72;4981413;28;20031;-76
2021/09/14 10:52:31;;;;;;;5.32;2.30;;;;;;;20.32;71.53;101696.06;4938710;28;20058;-78
2021/09/14 10:54:57;;;;;;;5.10;2.38;;;;;;;20.06;73.39;101696.56;4938876;28;20818;-79
2021/09/14 10:57:37;;;;;;;4.50;1.70;;;;;;;20.16;72.77;101697.13;4979140;28;20034;-78
2021/09/14 11:00:05;;;;;;;3.83;2.20;;;;;;;20.46;71.29;101692.53;4956798;28;20128;-78
2021/09/14 11:02:31;;;;;;;3.97;2.20;;;;;;;20.56;73.90;101695.72;4936491;28;20035;-77
2021/09/14 11:05:00;;;;;;;5.20;2.10;;;;;;;20.60;71.47;101696.19;4937601;28;20041;-79
2021/09/14 11:07:28;;;;;;;5.10;2.53;;;;;;;20.19;69.28;101684.25;4937495;28;20106;-79
2021/09/14 11:09:55;;;;;;;4.53;2.17;;;;;;;20.28;69.94;101689.47;4953645;28;20031;-80
2021/09/14 11:12:23;;;;;;;5.50;2.50;;;;;;;20.54;69.92;101689.75;4951263;28;20511;-78
2021/09/14 11:14:49;;;;;;;6.18;2.03;;;;;;;20.79;68.08;101692.06;4957011;28;20077;-79
2021/09/14 11:17:32;;;;;;;5.07;2.25;;;;;;;20.73;67.82;101692.84;4937082;28;20038;-78
2021/09/14 11:20:09;;;;;;;4.60;2.42;;;;;;;20.41;69.06;101689.63;4952273;28;20037;-79
2021/09/14 11:22:36;;;;;;;5.35;2.35;;;;;;;20.27;71.33;101687.81;4957451;28;20037;-79
2021/09/14 11:25:03;;;;;;;3.83;2.00;;;;;;;20.22;69.24;101688.38;4952722;28;20046;-80
2021/09/14 11:27:29;;;;;;;5.72;2.55;;;;;;;20.31;70.60;101686.44;4957559;28;20035;-77
2021/09/14 11:29:58;;;;;;;4.47;2.10;;;;;;;20.74;68.19;101679.31;4941165;28;20113;-77
2021/09/14 11:32:26;;;;;;;5.25;2.47;;;;;;;20.97;67.74;101681.78;4954652;28;20035;-81
2021/09/14 11:34:52;;;;;;;5.00;2.60;;;;;;;21.10;66.72;101677.56;4940821;28;20117;-79
2021/09/14 11:37:28;;;;;;;5.53;2.35;;;;;;;20.66;67.69;101679.44;4953433;28;20034;-83
2021/09/14 11:39:54;;;;;;;4.80;2.20;;;;;;;20.46;68.00;101670.41;4943110;28;20046;-79
2021/09/14 11:42:20;;;;;;;4.15;2.30;;;;;;;20.18;69.63;101671.13;4957979;28;20683;-80
2021/09/14 11:44:46;;;;;;;9.27;2.97;;;;;;;19.95;71.21;101664.09;4971497;28;20026;-78
2021/09/14 11:47:11;;;;;;;5.50;2.67;;;;;;;20.25;72.01;101661.38;4955276;28;20023;-81
2021/09/14 11:49:37;;;;;;;6.50;2.63;;;;;;;20.65;70.45;101667.13;4943353;28;20070;-81
2021/09/14 11:52:04;;;;;;;6.03;2.42;;;;;;;21.02;68.69;101675.03;4943663;28;20041;-75
2021/09/14 11:54:35;;;;;;;5.40;2.10;;;;;;;21.20;67.79;101673.53;4944288;28;20038;-81
2021/09/14 11:57:02;;;;;;;9.82;2.55;;;;;;;21.33;66.90;101669.31;4991887;28;20133;-79
2021/09/14 11:59:32;;;;;;;5.82;2.40;;;;;;;21.48;65.43;101670.06;4956799;28;20038;-78
2021/09/14 12:01:59;;;;;;;6.57;2.50;;;;;;;21.47;65.39;101668.38;4972728;28;20562;-80
2021/09/14 12:04:25;;;;;;;6.80;2.30;;;;;;;21.57;66.93;101662.72;4938657;28;20162;-79
2021/09/14 12:06:55;;;;;;;3.80;2.35;;;;;;;21.60;69.08;101661.50;4959294;28;20042;-79
2021/09/14 12:09:23;;;;;;;4.25;2.10;;;;;;;21.41;65.70;101653.13;4955931;28;20147;-80
2021/09/14 12:11:59;;;;;;;6.32;2.30;;;;;;;21.21;65.53;101653.03;4974786;28;20130;-78
2021/09/14 12:14:25;;;;;;;4.57;1.98;;;;;;;;;;4974112;28;20038;-81